Time;durP1;ratioP1;P1;durP2;ratioP2;P2;SDS_P1;SDS_P2;PMS_P1;PMS_P2;Temp;Humidity;BMP_temperature;BMP_pressure;BME280_temperature;BME280_humidity;BME280_pressure;Samples;Min_cycle;Max_cycle;Signal;HPM_P1;HPM_P2
2023/12/08 00:01:53;;;;;;;5.60;4.00;;;;;;;21.84;32.27;95062.19;6262043;27;109614;-62
2023/12/08 00:04:56;;;;;;;3.77;3.47;;;;;;;21.84;32.76;95059.53;6264586;27;109480;-62
2023/12/08 00:07:59;;;;;;;4.23;3.83;;;;;;;21.84;32.18;95062.19;6284981;27;109039;-62
2023/12/08 00:11:02;;;;;;;4.00;3.50;;;;;;;21.84;32.40;95062.19;6278356;27;110042;-61
2023/12/08 00:14:07;;;;;;;4.43;4.03;;;;;;;21.85;32.27;95060.34;6280955;27;109026;-61
2023/12/08 00:17:10;;;;;;;4.13;3.73;;;;;;;21.84;32.32;95070.19;6268365;27;109137;-61
2023/12/08 00:20:13;;;;;;;4.57;4.10;;;;;;;21.83;32.48;95063.28;6266517;27;110093;-62
2023/12/08 00:23:17;;;;;;;4.03;3.63;;;;;;;21.85;32.48;95071.78;6274674;27;109229;-62
2023/12/08 00:26:21;;;;;;;4.20;3.80;;;;;;;21.86;32.24;95075.22;6284884;27;109049;-63
2023/12/08 00:29:25;;;;;;;4.80;4.03;;;;;;;21.87;32.17;95077.59;6283833;27;109820;-62
2023/12/08 00:32:28;;;;;;;4.17;3.77;;;;;;;21.88;31.97;95067.72;6265136;27;109255;-61
2023/12/08 00:35:32;;;;;;;4.37;3.97;;;;;;;21.88;32.43;95065.84;6253702;27;109072;-61
2023/12/08 00:38:35;;;;;;;4.10;3.50;;;;;;;21.86;32.08;95062.69;6259609;27;109100;-62
2023/12/08 00:41:38;;;;;;;4.40;3.70;;;;;;;21.87;32.54;95056.28;6270539;27;110436;-64
2023/12/08 00:44:43;;;;;;;4.83;4.43;;;;;;;21.90;32.47;95063.66;6277116;27;110003;-62
2023/12/08 00:47:46;;;;;;;4.57;4.00;;;;;;;21.90;32.20;95054.88;6278920;27;109470;-61
2023/12/08 00:50:49;;;;;;;4.33;3.93;;;;;;;21.91;32.27;95054.56;6279953;27;109055;-62
2023/12/08 00:53:53;;;;;;;4.40;4.00;;;;;;;21.90;32.53;95057.53;6258978;27;108848;-61
2023/12/08 00:56:56;;;;;;;4.00;3.60;;;;;;;21.89;32.83;95054.09;6262775;27;109988;-62
2023/12/08 01:00:00;;;;;;;5.47;4.17;;;;;;;21.88;32.47;95055.19;6261695;27;109051;-61
2023/12/08 01:03:04;;;;;;;4.40;3.90;;;;;;;21.89;32.40;95066.63;6283971;27;110168;-61
2023/12/08 01:06:07;;;;;;;4.50;4.00;;;;;;;21.88;32.74;95068.50;6283875;27;109018;-62
2023/12/08 01:09:10;;;;;;;5.03;4.60;;;;;;;21.89;32.82;95075.41;6278036;27;109133;-62
2023/12/08 01:12:14;;;;;;;4.83;4.30;;;;;;;21.89;32.86;95069.28;6288957;27;109591;-62
2023/12/08 01:15:18;;;;;;;5.07;4.30;;;;;;;21.88;32.58;95071.16;6283749;27;109426;-62
2023/12/08 01:18:21;;;;;;;4.60;4.03;;;;;;;21.87;33.02;95069.59;6288232;27;109084;-61
2023/12/08 01:21:24;;;;;;;4.63;4.20;;;;;;;21.86;32.50;95073.34;6277635;27;109533;-61
2023/12/08 01:24:27;;;;;;;4.30;3.90;;;;;;;21.86;32.35;95076.00;6285149;27;109992;-62
2023/12/08 01:27:31;;;;;;;4.47;3.80;;;;;;;21.86;32.78;95073.34;6285852;27;109402;-63
2023/12/08 01:30:35;;;;;;;4.30;3.90;;;;;;;21.86;32.39;95068.03;6264899;27;111943;-62
2023/12/08 01:33:38;;;;;;;4.20;3.80;;;;;;;21.86;32.47;95068.03;6286005;27;110262;-62
2023/12/08 01:36:41;;;;;;;4.27;3.87;;;;;;;21.83;32.40;95063.28;6281197;27;110228;-63
2023/12/08 01:39:46;;;;;;;4.87;4.47;;;;;;;21.84;32.63;95064.06;6262967;27;109215;-63
2023/12/08 01:42:50;;;;;;;4.63;4.23;;;;;;;21.84;32.71;95061.41;6252374;27;110595;-62
2023/12/08 01:45:57;;;;;;;4.27;3.87;;;;;;;21.82;32.85;95064.38;6270704;27;109559;-62
2023/12/08 01:49:00;;;;;;;4.53;4.13;;;;;;;21.83;32.69;95062.50;6288436;27;111116;-62
2023/12/08 01:52:05;;;;;;;4.50;4.10;;;;;;;21.82;32.51;95061.72;6287261;27;109142;-62
2023/12/08 01:55:10;;;;;;;4.23;3.87;;;;;;;21.81;32.71;95068.88;6254061;27;109104;-63
2023/12/08 01:58:13;;;;;;;4.37;3.97;;;;;;;21.81;32.78;95060.88;6284189;27;109545;-62
2023/12/08 02:01:18;;;;;;;4.20;3.80;;;;;;;21.81;32.75;95062.75;6271884;27;110172;-62
2023/12/08 02:04:22;;;;;;;4.40;4.00;;;;;;;21.80;32.76;95061.97;6264010;27;109611;-63
2023/12/08 02:07:26;;;;;;;4.03;3.57;;;;;;;21.81;32.50;95060.09;6275868;27;109095;-63
2023/12/08 02:10:30;;;;;;;4.73;4.10;;;;;;;21.80;32.51;95055.88;6287477;27;109267;-63
2023/12/08 02:13:34;;;;;;;4.40;4.00;;;;;;;21.79;32.77;95065.72;6273210;27;109474;-62
2023/12/08 02:16:46;;;;;;;4.43;4.03;;;;;;;21.80;32.50;95071.84;6262888;27;109387;-62
2023/12/08 02:19:50;;;;;;;4.43;4.03;;;;;;;21.81;32.12;95070.75;6287441;27;109347;-62
2023/12/08 02:22:53;;;;;;;4.10;3.80;;;;;;;21.81;32.38;95081.41;6285405;27;109105;-62
2023/12/08 02:25:58;;;;;;;4.40;4.00;;;;;;;21.81;32.46;95089.41;6286495;27;109197;-62
2023/12/08 02:29:01;;;;;;;4.47;4.07;;;;;;;21.80;32.52;95090.50;6275653;27;109342;-63
2023/12/08 02:32:12;;;;;;;4.57;4.17;;;;;;;21.80;32.07;95085.16;6281778;27;112151;-62
2023/12/08 02:35:19;;;;;;;4.20;3.90;;;;;;;21.80;32.32;95085.16;6261717;27;109143;-62
2023/12/08 02:38:25;;;;;;;4.63;4.10;;;;;;;21.78;32.38;95082.03;6255777;27;110176;-62
2023/12/08 02:41:30;;;;;;;4.60;4.20;;;;;;;21.78;32.67;95079.34;6265948;27;109699;-62
2023/12/08 02:44:33;;;;;;;4.40;4.00;;;;;;;21.76;32.54;95078.88;6261795;27;109027;-62
2023/12/08 02:47:37;;;;;;;4.70;4.30;;;;;;;21.78;32.36;95082.03;6262125;27;109288;-61
2023/12/08 02:50:41;;;;;;;4.93;4.50;;;;;;;21.79;32.42;95080.94;6253641;27;109164;-61
2023/12/08 02:53:44;;;;;;;4.97;4.40;;;;;;;21.77;32.54;95083.91;6265446;27;110620;-62
2023/12/08 02:56:48;;;;;;;4.53;4.13;;;;;;;21.76;32.18;95073.56;6273610;27;109030;-61
2023/12/08 02:59:51;;;;;;;4.50;4.10;;;;;;;21.76;32.10;95084.19;6268220;27;110258;-62
2023/12/08 03:02:55;;;;;;;4.43;3.70;;;;;;;21.76;32.47;95071.66;6258117;27;109147;-62
2023/12/08 03:05:58;;;;;;;4.40;4.00;;;;;;;21.78;32.02;95076.69;6275356;27;109094;-62
2023/12/08 03:09:01;;;;;;;4.40;3.80;;;;;;;21.76;32.31;95068.22;6285042;27;109372;-63
2023/12/08 03:12:07;;;;;;;4.43;4.03;;;;;;;21.74;32.13;95068.53;6275691;27;109063;-63
2023/12/08 03:15:10;;;;;;;4.50;4.10;;;;;;;21.77;31.88;95070.59;6251208;27;109057;-61
2023/12/08 03:18:13;;;;;;;4.87;3.97;;;;;;;21.76;31.96;95073.56;6283212;27;109046;-62
2023/12/08 03:21:23;;;;;;;4.33;3.93;;;;;;;21.75;31.93;95064.78;6282737;27;108911;-62
2023/12/08 03:24:26;;;;;;;5.17;4.67;;;;;;;21.76;32.22;95062.91;6249866;27;109263;-61
2023/12/08 03:27:30;;;;;;;5.10;4.60;;;;;;;21.76;32.33;95068.22;6274395;27;109828;-62
2023/12/08 03:30:33;;;;;;;4.40;3.83;;;;;;;21.76;32.33;95062.91;6261472;27;109134;-61
2023/12/08 03:33:36;;;;;;;5.93;4.23;;;;;;;21.77;32.01;95061.81;6279173;27;109130;-61
2023/12/08 03:36:39;;;;;;;4.70;4.30;;;;;;;21.77;32.02;95061.81;6262225;27;110478;-62
2023/12/08 03:39:44;;;;;;;4.13;3.83;;;;;;;21.75;32.00;95067.44;6259928;27;109386;-63
2023/12/08 03:42:49;;;;;;;4.40;4.00;;;;;;;21.76;32.06;95060.22;6278667;27;109780;-62
2023/12/08 03:45:52;;;;;;;5.00;4.57;;;;;;;21.75;31.96;95059.44;6285236;27;109252;-62
2023/12/08 03:48:55;;;;;;;4.50;4.10;;;;;;;21.75;32.14;95056.00;6254118;27;111533;-63
2023/12/08 03:51:58;;;;;;;4.40;3.50;;;;;;;21.76;32.11;95047.69;6270810;27;108836;-61
2023/12/08 03:55:02;;;;;;;4.77;4.27;;;;;;;21.74;31.61;95046.44;6262998;27;109750;-61
2023/12/08 03:58:06;;;;;;;4.50;4.03;;;;;;;21.75;31.95;95046.13;6265750;27;109243;-61
2023/12/08 04:01:09;;;;;;;3.83;3.53;;;;;;;21.75;32.33;95050.66;6257164;27;110149;-62
2023/12/08 04:04:12;;;;;;;4.00;3.60;;;;;;;21.79;32.02;95047.09;6285577;27;109044;-64
2023/12/08 04:07:29;;;;;;;4.10;3.70;;;;;;;21.81;31.75;95044.13;6273252;27;109003;-61
2023/12/08 04:10:32;;;;;;;4.67;4.23;;;;;;;21.83;32.05;95035.84;6247510;27;108945;-62
2023/12/08 04:13:39;;;;;;;4.20;3.80;;;;;;;21.86;32.03;95041.38;6278326;27;109361;-64
2023/12/08 04:16:42;;;;;;;3.90;3.53;;;;;;;21.88;32.02;95036.53;6265942;27;109690;-62
2023/12/08 04:19:45;;;;;;;4.57;3.70;;;;;;;21.89;32.06;95034.66;6285141;27;108803;-61
2023/12/08 04:22:48;;;;;;;5.97;5.00;;;;;;;22.00;32.18;95025.31;6256905;27;111108;-63
2023/12/08 04:25:51;;;;;;;11.40;5.13;;;;;;;22.08;31.90;95025.34;6274079;27;109125;-62
2023/12/08 04:28:58;;;;;;;7.13;4.90;;;;;;;22.18;31.67;95024.31;6280591;27;109162;-62
2023/12/08 04:32:01;;;;;;;5.73;5.23;;;;;;;22.35;31.50;95026.28;6277559;27;109269;-62
2023/12/08 04:35:05;;;;;;;6.20;5.50;;;;;;;22.43;31.63;95025.50;6253818;27;109577;-63
2023/12/08 04:38:08;;;;;;;5.60;5.03;;;;;;;22.46;32.17;95032.09;6277583;27;109100;-62
2023/12/08 04:41:12;;;;;;;6.40;5.50;;;;;;;22.49;32.34;95037.59;6281423;27;109019;-62
2023/12/08 04:44:16;;;;;;;5.67;5.13;;;;;;;22.56;32.45;95040.63;6277913;27;112073;-63
2023/12/08 04:47:19;;;;;;;10.37;6.10;;;;;;;22.51;32.93;95046.09;6285352;27;109245;-58
2023/12/08 04:50:22;;;;;;;9.17;5.57;;;;;;;22.19;32.43;95049.09;6269502;27;109101;-58
2023/12/08 04:53:25;;;;;;;5.90;5.27;;;;;;;21.77;31.30;95049.28;6272045;27;109163;-58
2023/12/08 04:56:28;;;;;;;7.33;5.50;;;;;;;21.71;31.59;95057.69;6262518;27;110122;-61
2023/12/08 04:59:32;;;;;;;7.40;6.70;;;;;;;21.31;29.76;95057.50;6276323;27;109145;-61
2023/12/08 05:02:36;;;;;;;6.40;5.80;;;;;;;20.93;29.28;95063.09;6280604;27;109181;-61
2023/12/08 05:05:39;;;;;;;6.43;5.93;;;;;;;20.70;28.17;95056.13;6280710;27;110515;-60
2023/12/08 05:08:42;;;;;;;6.30;5.80;;;;;;;20.72;28.52;95069.13;6272122;27;109556;-65
2023/12/08 05:11:46;;;;;;;7.50;6.83;;;;;;;20.71;28.75;95078.97;6266967;27;109989;-61
2023/12/08 05:14:50;;;;;;;7.43;6.47;;;;;;;20.80;29.03;95063.88;6279247;27;110156;-61
2023/12/08 05:17:53;;;;;;;7.13;5.83;;;;;;;21.35;28.86;95079.81;6276425;27;109131;-61
2023/12/08 05:20:56;;;;;;;7.00;5.57;;;;;;;21.59;28.50;95074.19;6285711;27;110303;-61
2023/12/08 05:24:00;;;;;;;5.83;5.30;;;;;;;21.80;27.89;95069.97;6288144;27;109225;-60
2023/12/08 05:27:03;;;;;;;6.07;5.47;;;;;;;21.92;27.87;95066.00;6288035;27;109086;-60
2023/12/08 05:30:09;;;;;;;5.63;5.23;;;;;;;22.01;28.10;95066.84;6277561;27;109398;-61
2023/12/08 05:33:12;;;;;;;5.50;5.00;;;;;;;22.04;27.97;95069.69;6288049;27;110894;-61
2023/12/08 05:36:16;;;;;;;4.90;4.40;;;;;;;22.06;28.66;95082.72;6288180;27;110050;-61
2023/12/08 05:39:20;;;;;;;4.43;4.03;;;;;;;22.03;28.93;95073.47;6287745;27;109386;-61
2023/12/08 05:42:23;;;;;;;5.73;4.20;;;;;;;21.96;29.25;95074.97;6277005;27;110298;-61
2023/12/08 05:45:28;;;;;;;4.63;4.23;;;;;;;21.91;29.29;95080.44;6288234;27;109347;-60
2023/12/08 05:48:31;;;;;;;4.40;4.00;;;;;;;21.89;29.58;95083.41;6287912;27;111127;-60
2023/12/08 05:51:34;;;;;;;5.00;4.47;;;;;;;21.88;29.80;95089.81;6282073;27;109590;-60
2023/12/08 05:54:37;;;;;;;4.50;4.10;;;;;;;21.87;29.90;95092.78;6256007;27;109638;-61
2023/12/08 05:57:41;;;;;;;4.17;3.77;;;;;;;21.86;29.58;95093.88;6271005;27;109212;-60
2023/12/08 06:00:45;;;;;;;4.07;3.70;;;;;;;21.86;29.92;95094.66;6287656;27;109416;-61
2023/12/08 06:03:49;;;;;;;4.17;3.87;;;;;;;21.85;30.05;95101.09;6276361;27;109576;-61
2023/12/08 06:06:52;;;;;;;3.90;3.60;;;;;;;21.84;30.36;95104.81;6287145;27;109203;-61
2023/12/08 06:09:55;;;;;;;4.20;3.80;;;;;;;21.83;30.44;95103.22;6287606;27;109469;-61
2023/12/08 06:12:59;;;;;;;4.30;3.97;;;;;;;21.83;30.17;95100.56;6286574;27;109035;-62
2023/12/08 06:16:04;;;;;;;4.13;3.73;;;;;;;21.83;30.11;95100.56;6276856;27;109374;-60
2023/12/08 06:19:08;;;;;;;4.00;3.60;;;;;;;21.84;30.30;95096.03;6287618;27;111909;-61
2023/12/08 06:22:12;;;;;;;6.20;3.80;;;;;;;21.84;30.22;95096.81;6287284;27;109204;-60
2023/12/08 06:25:15;;;;;;;4.20;3.83;;;;;;;21.83;30.44;95097.91;6287157;27;109354;-61
2023/12/08 06:28:18;;;;;;;4.03;3.73;;;;;;;21.81;30.67;95103.50;6276382;27;110222;-61
2023/12/08 06:31:23;;;;;;;3.50;3.20;;;;;;;21.79;30.19;95112.91;6286937;27;112419;-62
2023/12/08 06:34:26;;;;;;;4.03;3.73;;;;;;;21.81;30.25;95110.72;6287016;27;109264;-62
2023/12/08 06:37:29;;;;;;;4.23;3.83;;;;;;;21.80;30.27;95109.13;6278370;27;109126;-62
2023/12/08 06:40:32;;;;;;;4.23;3.93;;;;;;;21.77;30.77;95113.19;6285709;27;109248;-63
2023/12/08 06:43:36;;;;;;;3.60;3.30;;;;;;;21.78;30.73;95113.97;6285707;27;108979;-61
2023/12/08 06:46:40;;;;;;;3.67;3.37;;;;;;;21.76;30.70;95114.28;6287081;27;109458;-61
2023/12/08 06:49:43;;;;;;;4.17;3.77;;;;;;;21.74;30.96;95110.34;6276229;27;112127;-61
2023/12/08 06:52:50;;;;;;;4.03;3.73;;;;;;;21.74;30.76;95121.00;6286223;27;109361;-61
2023/12/08 06:55:53;;;;;;;3.87;3.57;;;;;;;21.74;30.58;95118.34;6286443;27;109266;-61
2023/12/08 06:58:57;;;;;;;3.60;3.30;;;;;;;21.72;30.94;95121.31;6286098;27;109329;-61
2023/12/08 07:02:01;;;;;;;4.03;3.63;;;;;;;21.73;30.65;95119.44;6277124;27;109863;-61
2023/12/08 07:05:05;;;;;;;3.33;3.03;;;;;;;21.72;30.78;95117.88;6286847;27;109016;-60
2023/12/08 07:08:08;;;;;;;4.07;3.77;;;;;;;21.74;30.99;95119.13;6286185;27;109657;-62
2023/12/08 07:11:11;;;;;;;3.50;3.20;;;;;;;21.73;30.40;95122.88;6281632;27;109502;-60
2023/12/08 07:14:14;;;;;;;3.67;3.37;;;;;;;21.73;30.92;95133.53;6279181;27;109194;-61
2023/12/08 07:17:19;;;;;;;4.10;3.60;;;;;;;21.73;30.72;95122.09;6285850;27;109115;-61
2023/12/08 07:20:22;;;;;;;4.03;3.73;;;;;;;21.75;30.69;95126.03;6285858;27;109133;-61
2023/12/08 07:23:25;;;;;;;3.50;3.20;;;;;;;21.78;30.28;95129.97;6274933;27;109602;-61
2023/12/08 07:26:28;;;;;;;4.27;3.60;;;;;;;22.01;30.97;95138.78;6286250;27;109389;-61
2023/12/08 07:29:31;;;;;;;3.40;3.10;;;;;;;22.05;30.98;95131.78;6286204;27;110199;-61
2023/12/08 07:32:36;;;;;;;4.40;3.17;;;;;;;22.09;30.96;95136.19;6285121;27;109548;-61
2023/12/08 07:35:39;;;;;;;4.03;3.73;;;;;;;22.09;30.30;95136.19;6276099;27;109474;-61
2023/12/08 07:38:42;;;;;;;3.90;3.50;;;;;;;22.15;30.77;95133.41;6285828;27;109483;-61
2023/12/08 07:41:45;;;;;;;3.80;3.03;;;;;;;22.16;31.31;95137.63;6285893;27;109581;-61
2023/12/08 07:44:48;;;;;;;3.50;3.20;;;;;;;22.17;31.21;95139.22;6285489;27;109015;-61
2023/12/08 07:47:53;;;;;;;4.83;3.67;;;;;;;22.11;30.79;95142.00;6275116;27;110030;-60
2023/12/08 07:50:56;;;;;;;3.90;3.60;;;;;;;22.09;31.22;95140.75;6285517;27;109094;-60
2023/12/08 07:54:00;;;;;;;3.50;3.20;;;;;;;22.13;31.10;95140.91;6285562;27;109151;-60
2023/12/08 07:57:05;;;;;;;4.03;3.70;;;;;;;22.13;31.06;95139.03;6278533;27;109615;-60
2023/12/08 08:00:10;;;;;;;4.30;3.90;;;;;;;22.10;31.40;95132.44;6282850;27;109263;-61
2023/12/08 08:03:15;;;;;;;3.60;3.30;;;;;;;22.00;31.08;95138.00;6285017;27;109046;-60
2023/12/08 08:06:18;;;;;;;4.50;4.10;;;;;;;21.92;31.30;95130.75;6285340;27;109259;-60
2023/12/08 08:09:21;;;;;;;4.00;3.70;;;;;;;21.86;31.13;95129.28;6273860;27;110688;-61
2023/12/08 08:12:25;;;;;;;3.70;3.40;;;;;;;21.83;30.99;95121.88;6285031;27;109103;-62
2023/12/08 08:15:28;;;;;;;3.70;3.40;;;;;;;21.83;31.03;95126.41;6286709;27;109548;-60
2023/12/08 08:18:32;;;;;;;3.63;3.33;;;;;;;21.80;31.38;95122.47;6289583;27;110425;-61
2023/12/08 08:21:36;;;;;;;4.83;3.90;;;;;;;21.79;30.86;95112.91;6278812;27;109313;-60
2023/12/08 08:24:39;;;;;;;4.30;3.80;;;;;;;21.79;31.39;95116.34;6289524;27;109009;-61
2023/12/08 08:27:42;;;;;;;4.67;4.27;;;;;;;21.78;31.06;95117.44;6289195;27;109488;-62
2023/12/08 08:30:45;;;;;;;3.93;3.53;;;;;;;21.78;30.97;95106.00;6283832;27;109782;-60
2023/12/08 08:33:50;;;;;;;4.03;3.73;;;;;;;21.77;31.40;95101.75;6283693;27;109248;-62
2023/12/08 08:36:54;;;;;;;4.37;4.00;;;;;;;21.77;30.90;95109.75;6289238;27;108987;-62
2023/12/08 08:39:57;;;;;;;4.10;3.77;;;;;;;21.76;30.91;95095.66;6288885;27;109049;-60
2023/12/08 08:43:01;;;;;;;3.87;3.57;;;;;;;21.84;31.52;95096.81;6278678;27;109123;-62
2023/12/08 08:46:04;;;;;;;4.07;3.73;;;;;;;21.97;30.96;95093.31;6288428;27;110100;-62
2023/12/08 08:49:09;;;;;;;4.10;3.80;;;;;;;22.02;30.67;95087.88;6288804;27;109571;-60
2023/12/08 08:52:14;;;;;;;3.90;3.60;;;;;;;22.05;31.03;95091.81;6289038;27;109051;-60
2023/12/08 08:55:17;;;;;;;4.20;3.80;;;;;;;22.05;30.32;95091.81;6278610;27;109558;-60
2023/12/08 08:58:20;;;;;;;4.60;4.20;;;;;;;22.06;31.13;95096.84;6288237;27;110294;-60
2023/12/08 09:01:24;;;;;;;4.13;3.83;;;;;;;22.08;30.92;95089.31;6289213;27;108873;-60
2023/12/08 09:04:28;;;;;;;4.07;3.70;;;;;;;22.09;30.88;95084.78;6288383;27;109056;-60
2023/12/08 09:07:31;;;;;;;4.10;3.70;;;;;;;22.09;30.54;95082.91;6277568;27;109062;-59
2023/12/08 09:10:36;;;;;;;3.70;3.40;;;;;;;22.08;31.14;95078.66;6288637;27;109607;-60
2023/12/08 09:13:40;;;;;;;3.77;3.47;;;;;;;21.97;30.64;95076.53;6288531;27;109118;-60
2023/12/08 09:16:43;;;;;;;3.87;3.57;;;;;;;21.91;31.15;95073.22;6278695;27;109407;-61
2023/12/08 09:19:47;;;;;;;4.13;3.83;;;;;;;21.87;30.89;95066.94;6287845;27;109402;-60
2023/12/08 09:22:51;;;;;;;3.80;3.50;;;;;;;21.87;31.08;95063.47;6288187;27;109144;-61
2023/12/08 09:25:54;;;;;;;4.30;3.93;;;;;;;21.87;30.75;95058.94;6288298;27;109216;-60
2023/12/08 09:28:57;;;;;;;3.67;3.37;;;;;;;21.91;30.97;95061.78;6277422;27;109585;-60
2023/12/08 09:32:00;;;;;;;8.90;8.20;;;;;;;21.92;30.59;95050.03;6287336;27;109500;-61
2023/12/08 09:35:05;;;;;;;18.33;17.13;;;;;;;21.90;30.92;95052.22;6288181;27;109072;-60
2023/12/08 09:38:09;;;;;;;17.77;16.57;;;;;;;21.89;30.93;95047.97;6287928;27;109071;-60
2023/12/08 09:41:22;;;;;;;18.40;17.10;;;;;;;21.89;31.39;95050.63;6277397;27;111746;-61
2023/12/08 09:44:27;;;;;;;16.77;15.67;;;;;;;21.88;31.38;95046.41;6288045;27;111110;-61
2023/12/08 09:47:34;;;;;;;15.27;14.20;;;;;;;21.87;31.18;95050.94;6286820;27;109108;-60
2023/12/08 09:50:40;;;;;;;14.70;13.70;;;;;;;21.85;31.34;95039.81;6282238;27;109534;-60
2023/12/08 09:53:45;;;;;;;13.53;12.53;;;;;;;21.85;31.18;95047.81;6283157;27;109411;-61
2023/12/08 09:56:52;;;;;;;12.90;11.93;;;;;;;21.83;31.57;95041.19;6287362;27;109004;-61
2023/12/08 09:59:59;;;;;;;11.40;10.60;;;;;;;21.83;31.53;95036.63;6287241;27;109032;-61
2023/12/08 10:03:02;;;;;;;11.10;10.30;;;;;;;21.81;30.97;95028.13;6277392;27;110206;-61
2023/12/08 10:06:08;;;;;;;10.33;9.60;;;;;;;21.81;31.56;95033.47;6287543;27;109262;-60
2023/12/08 10:09:13;;;;;;;9.10;8.50;;;;;;;21.80;31.45;95027.34;6287557;27;109070;-61
2023/12/08 10:12:16;;;;;;;9.10;8.40;;;;;;;21.81;31.65;95018.28;6287355;27;109168;-61
2023/12/08 10:15:19;;;;;;;8.20;7.40;;;;;;;21.80;31.12;95007.91;6277147;27;110262;-61
2023/12/08 10:18:24;;;;;;;7.10;6.60;;;;;;;21.80;31.15;95013.25;6286930;27;109745;-61
2023/12/08 10:21:29;;;;;;;7.43;6.93;;;;;;;21.80;31.39;95010.59;6261958;27;109137;-61
2023/12/08 10:24:33;;;;;;;7.27;6.77;;;;;;;21.80;31.49;95005.25;6266407;27;109511;-61
2023/12/08 10:27:36;;;;;;;6.53;6.03;;;;;;;21.80;31.41;95005.25;6281728;27;109130;-60
2023/12/08 10:30:46;;;;;;;6.53;6.00;;;;;;;21.79;31.43;95003.69;6286349;27;109451;-61
2023/12/08 10:33:49;;;;;;;6.50;6.00;;;;;;;21.80;31.59;95005.25;6286745;27;109539;-60
2023/12/08 10:36:55;;;;;;;6.07;5.60;;;;;;;21.79;31.51;95007.13;6276154;27;110027;-61
2023/12/08 10:39:59;;;;;;;5.70;5.30;;;;;;;21.81;30.93;95006.81;6287433;27;109413;-61
2023/12/08 10:43:02;;;;;;;5.70;5.20;;;;;;;21.81;31.08;95006.81;6286853;27;109185;-61
2023/12/08 10:46:05;;;;;;;5.90;5.40;;;;;;;21.82;31.34;95003.09;6286638;27;109266;-61
2023/12/08 10:49:10;;;;;;;5.10;4.67;;;;;;;21.85;30.97;94999.84;6275644;27;109663;-60
2023/12/08 10:52:16;;;;;;;4.97;4.57;;;;;;;21.83;31.20;94996.69;6287476;27;110661;-59
2023/12/08 10:55:19;;;;;;;5.53;5.13;;;;;;;21.82;31.31;94997.78;6286672;27;110973;-60
2023/12/08 10:58:42;;;;;;;4.77;4.37;;;;;;;21.82;30.98;94992.44;6277567;27;108738;-60
2023/12/08 11:01:47;;;;;;;4.90;4.50;;;;;;;21.80;31.14;94989.28;6255875;27;109246;-60
2023/12/08 11:04:54;;;;;;;4.97;4.40;;;;;;;21.77;31.21;94977.34;6270723;27;109170;-62
2023/12/08 11:08:04;;;;;;;5.30;4.90;;;;;;;21.79;31.32;94977.03;6286461;27;109177;-61
2023/12/08 11:11:09;;;;;;;5.50;5.00;;;;;;;21.79;31.15;94979.72;6275802;27;110337;-61
2023/12/08 11:14:19;;;;;;;4.80;4.40;;;;;;;21.79;31.61;94982.38;6286128;27;109536;-61
2023/12/08 11:17:31;;;;;;;5.77;4.60;;;;;;;21.79;31.30;94977.03;6286160;27;109029;-61
2023/12/08 11:20:35;;;;;;;4.53;4.13;;;;;;;21.79;31.38;94971.72;6285201;27;109592;-61
2023/12/08 11:23:41;;;;;;;4.70;4.30;;;;;;;21.77;31.13;94969.38;6274944;27;109338;-62
2023/12/08 11:26:50;;;;;;;4.43;4.10;;;;;;;21.77;31.14;94969.38;6285986;27;109050;-60
2023/12/08 11:30:02;;;;;;;5.07;4.60;;;;;;;21.79;30.99;94974.38;6286038;27;109299;-60
2023/12/08 11:33:12;;;;;;;5.47;4.97;;;;;;;21.79;31.34;94971.72;6275603;27;109101;-61
2023/12/08 11:36:19;;;;;;;4.50;4.10;;;;;;;21.78;31.32;94964.81;6285340;27;109553;-61
2023/12/08 11:39:45;;;;;;;5.43;4.60;;;;;;;21.79;30.91;94961.06;6285313;27;109143;-60
2023/12/08 11:42:50;;;;;;;4.70;4.30;;;;;;;21.77;31.17;94969.38;6285624;27;109175;-60
2023/12/08 11:45:54;;;;;;;6.63;4.60;;;;;;;21.76;31.67;94973.13;6274585;27;109089;-60
2023/12/08 11:48:57;;;;;;;5.20;4.70;;;;;;;21.77;31.46;94973.91;6284220;27;109591;-60
2023/12/08 11:52:11;;;;;;;4.50;4.10;;;;;;;21.75;31.26;94965.44;6259362;27;109129;-61
2023/12/08 11:55:20;;;;;;;4.90;4.50;;;;;;;21.76;31.15;94967.00;6265312;27;109228;-60
2023/12/08 11:58:34;;;;;;;6.10;4.50;;;;;;;21.75;31.17;94968.88;6279637;27;109238;-59
2023/12/08 12:01:38;;;;;;;4.60;4.20;;;;;;;21.75;30.83;94971.56;6285384;27;110011;-60
2023/12/08 12:04:41;;;;;;;5.00;4.60;;;;;;;21.75;31.51;94960.91;6285354;27;109389;-60
2023/12/08 12:07:46;;;;;;;4.80;4.40;;;;;;;21.75;31.17;94954.78;6274133;27;108807;-62
2023/12/08 12:10:56;;;;;;;5.03;4.60;;;;;;;21.74;30.96;94956.66;6284861;27;109410;-62
2023/12/08 12:14:00;;;;;;;6.33;4.73;;;;;;;21.74;30.91;94964.66;6285535;27;109921;-62
2023/12/08 12:17:04;;;;;;;4.90;4.50;;;;;;;21.73;30.94;94955.09;6285052;27;110116;-61
2023/12/08 12:20:09;;;;;;;5.00;4.50;;;;;;;21.74;30.92;94959.31;6274031;27;111065;-60
2023/12/08 12:23:13;;;;;;;4.73;4.33;;;;;;;21.74;30.80;94958.53;6284334;27;110398;-61
2023/12/08 12:26:21;;;;;;;4.90;4.50;;;;;;;21.74;30.84;94947.88;6285220;27;108976;-62
2023/12/08 12:29:26;;;;;;;4.93;4.53;;;;;;;21.75;31.09;94954.78;6280780;27;109202;-61
2023/12/08 12:32:28;;;;;;;5.13;4.73;;;;;;;21.74;30.73;94958.53;6278633;27;109164;-60
2023/12/08 12:35:32;;;;;;;4.60;4.20;;;;;;;21.75;30.70;94960.09;6284746;27;110139;-60
2023/12/08 12:38:35;;;;;;;5.13;4.60;;;;;;;21.73;31.18;94960.41;6284919;27;111340;-61
2023/12/08 12:41:39;;;;;;;5.17;4.77;;;;;;;21.74;31.02;94963.88;6273817;27;109519;-62
2023/12/08 12:44:44;;;;;;;5.40;4.90;;;;;;;21.74;31.06;94969.19;6284494;27;109351;-60
2023/12/08 12:47:47;;;;;;;4.93;4.53;;;;;;;21.75;30.79;94962.78;6284369;27;108981;-60
2023/12/08 12:50:52;;;;;;;5.80;5.30;;;;;;;21.76;30.89;94962.47;6284225;27;109066;-62
2023/12/08 12:53:55;;;;;;;5.07;4.67;;;;;;;21.84;30.88;94963.63;6272371;27;109142;-61
2023/12/08 12:57:00;;;;;;;5.67;5.20;;;;;;;21.97;30.62;94961.97;6284248;27;109173;-60
2023/12/08 13:00:09;;;;;;;5.10;4.70;;;;;;;22.02;30.67;94970.63;6285224;27;110107;-60
2023/12/08 13:03:14;;;;;;;5.40;5.00;;;;;;;22.04;31.32;94967.66;6288539;27;109134;-61
2023/12/08 13:06:27;;;;;;;4.80;4.40;;;;;;;22.05;31.34;94969.22;6279512;27;109279;-60
2023/12/08 13:09:30;;;;;;;4.93;4.43;;;;;;;22.05;31.30;94969.22;6288917;27;109249;-60
2023/12/08 13:12:35;;;;;;;5.20;4.70;;;;;;;22.06;31.08;94971.59;6263415;27;109113;-59
2023/12/08 13:15:38;;;;;;;5.40;4.90;;;;;;;22.05;31.51;94969.22;6262521;27;109146;-61
2023/12/08 13:18:46;;;;;;;5.20;4.70;;;;;;;21.97;30.67;94975.28;6288257;27;109686;-60
2023/12/08 13:21:50;;;;;;;5.70;4.93;;;;;;;22.02;31.25;94970.63;6288736;27;109513;-61
2023/12/08 13:24:53;;;;;;;5.40;4.90;;;;;;;22.04;31.53;94971.09;6287755;27;109672;-60
2023/12/08 13:27:57;;;;;;;5.47;4.97;;;;;;;21.95;31.02;94972.16;6277562;27;109430;-60
2023/12/08 13:31:00;;;;;;;4.70;4.30;;;;;;;21.88;31.02;94977.13;6287197;27;110208;-60
2023/12/08 13:34:03;;;;;;;6.03;5.50;;;;;;;21.86;31.13;94976.66;6288254;27;109858;-62
2023/12/08 13:37:07;;;;;;;4.73;4.33;;;;;;;21.85;31.42;94977.75;6287989;27;109230;-61
2023/12/08 13:40:11;;;;;;;4.97;4.57;;;;;;;21.85;31.30;94980.41;6276958;27;109118;-61
2023/12/08 13:43:16;;;;;;;5.07;4.57;;;;;;;21.83;31.40;94986.03;6288291;27;112176;-61
2023/12/08 13:46:20;;;;;;;5.23;4.83;;;;;;;21.83;31.30;94978.03;6288338;27;110410;-62
2023/12/08 13:49:23;;;;;;;5.23;4.73;;;;;;;21.82;31.36;94979.13;6282462;27;109463;-61
2023/12/08 13:52:26;;;;;;;6.00;5.50;;;;;;;21.84;31.22;94981.47;6284185;27;109110;-60
2023/12/08 13:55:30;;;;;;;5.13;4.67;;;;;;;21.79;31.33;94987.69;6286635;27;109513;-60
2023/12/08 13:58:34;;;;;;;5.30;4.80;;;;;;;21.77;31.42;94984.56;6287368;27;109282;-61
2023/12/08 14:01:37;;;;;;;5.30;4.90;;;;;;;21.75;31.37;94986.75;6276468;27;109894;-60
2023/12/08 14:04:40;;;;;;;5.60;5.03;;;;;;;21.74;31.00;94979.84;6287322;27;109163;-60
2023/12/08 14:07:44;;;;;;;5.60;5.10;;;;;;;21.73;31.03;94987.06;6287266;27;109401;-61
2023/12/08 14:10:47;;;;;;;5.37;4.87;;;;;;;21.73;31.02;94986.28;6287421;27;109145;-60
2023/12/08 14:13:52;;;;;;;5.40;4.93;;;;;;;21.71;31.07;94983.13;6275517;27;109140;-60
2023/12/08 14:16:55;;;;;;;5.70;5.10;;;;;;;21.73;31.42;94983.59;6287674;27;111063;-61